KRAL/RAL METAR and TAF weather

Enter ICAO airport designator
Station Type Date Time Source
KRAL METAR 2021/09/23 23:53 UTC NOAA

KRAL 232353Z 27009KT 10SM OVC150 29/04 A2985 RMK AO2 SLP090 T02940039 10339 20294 55004


Station Type Date Time Source
KRAL Decoded METAR 2021/09/23 23:53 UTC NOAA

RIVERSIDE MUNICIPAL AIRPORT , CA, United States (KRAL) 33-57N 117-27W 252M
Sep 23, 2021 - 07:53 PM EDT / 2021.09.23 2353 UTC
Wind: from the W (270 degrees) at 10 MPH (9 KT):0
Visibility: 10 mile(s):0
Sky conditions: overcast
Temperature: 84.9 F (29.4 C)
Dew Point: 39.0 F (3.9 C)
Relative Humidity: 19%
Pressure (altimeter): 29.85 in. Hg (1010 hPa)
Pressure tendency: 0.01 inches (0.4 hPa) lower than three hours ago
ob: KRAL 232353Z 27009KT 10SM OVC150 29/04 A2985 RMK AO2 SLP090 T02940039 10339 20294 55004
cycle: 0

Station Type Date Time Source
KRAL TAF UTC NOAA

Error!

Example: see airport list